Time;durP1;ratioP1;P1;durP2;ratioP2;P2;SDS_P1;SDS_P2;PMS_P1;PMS_P2;Temp;Humidity;BMP_temperature;BMP_pressure;BME280_temperature;BME280_humidity;BME280_pressure;Samples;Min_cycle;Max_cycle;Signal;HPM_P1;HPM_P2
2023/03/06 00:02:09;;;;;;;34.60;10.60;;;;;;;-3.08;77.05;99781.71;111057;1206;97764;-65
2023/03/06 00:04:35;;;;;;;42.20;11.60;;;;;;;-3.09;76.99;99781.71;111024;1208;139488;-64
2023/03/06 00:07:00;;;;;;;29.20;9.70;;;;;;;-3.11;76.88;99781.90;111191;1206;98987;-64
2023/03/06 00:09:25;;;;;;;39.30;10.70;;;;;;;-3.11;77.02;99779.10;111027;1206;97794;-64
2023/03/06 00:11:50;;;;;;;38.10;11.20;;;;;;;-3.12;77.20;99783.46;111058;1208;138993;-66
2023/03/06 00:14:16;;;;;;;27.00;10.60;;;;;;;-3.13;77.23;99779.63;111163;1208;105771;-65
2023/03/06 00:16:41;;;;;;;30.10;10.70;;;;;;;-3.13;77.52;99776.48;110979;1208;140989;-64
2023/03/06 00:19:06;;;;;;;32.10;11.50;;;;;;;-3.14;76.87;99774.39;111212;1206;98948;-64
2023/03/06 00:21:31;;;;;;;29.70;11.60;;;;;;;-3.15;77.32;99766.35;111113;1206;99002;-65
2023/03/06 00:23:57;;;;;;;55.80;13.60;;;;;;;-3.15;77.33;99762.68;111074;1208;139849;-65
2023/03/06 00:26:22;;;;;;;35.00;10.40;;;;;;;-3.14;77.42;99764.08;111201;1221;98364;-65
2023/03/06 00:28:47;;;;;;;33.00;11.00;;;;;;;-3.14;77.64;99764.60;111027;1208;141044;-65
2023/03/06 00:31:13;;;;;;;33.50;11.20;;;;;;;-3.14;77.37;99766.17;111222;1206;106838;-65
2023/03/06 00:33:38;;;;;;;35.60;11.30;;;;;;;-3.17;77.67;99768.27;111173;1208;99092;-64
2023/03/06 00:36:05;;;;;;;33.40;12.50;;;;;;;-3.18;77.66;99762.17;111165;1208;139507;-64
2023/03/06 00:38:32;;;;;;;39.70;12.90;;;;;;;-3.18;77.61;99764.08;111253;1208;100276;-65
2023/03/06 00:40:57;;;;;;;41.50;13.50;;;;;;;-3.18;77.88;99754.83;111032;1209;139945;-65
2023/03/06 00:43:23;;;;;;;36.70;13.60;;;;;;;-3.18;77.95;99754.83;111150;1206;99668;-64
2023/03/06 00:45:48;;;;;;;47.10;15.00;;;;;;;-3.18;77.45;99750.98;111176;1205;98982;-65
2023/03/06 00:48:13;;;;;;;52.70;14.80;;;;;;;-3.19;77.55;99746.27;110975;1210;138994;-64
2023/03/06 00:50:38;;;;;;;48.30;15.70;;;;;;;-3.22;77.46;99742.08;111200;1208;99070;-65
2023/03/06 00:53:04;;;;;;;48.70;15.10;;;;;;;-3.23;77.41;99741.39;111025;1208;138872;-65
2023/03/06 00:55:30;;;;;;;51.60;14.00;;;;;;;-3.25;77.57;99737.20;111079;1207;98936;-65
2023/03/06 00:57:55;;;;;;;47.20;14.70;;;;;;;-3.27;77.41;99730.39;110980;1206;99045;-64
2023/03/06 01:00:21;;;;;;;44.20;15.10;;;;;;;-3.28;77.59;99729.17;111087;1205;139700;-65
2023/03/06 01:02:46;;;;;;;52.70;15.90;;;;;;;-3.29;77.78;99726.02;111134;1206;98925;-64
2023/03/06 01:05:12;;;;;;;50.70;16.80;;;;;;;-3.30;77.84;99722.54;111076;1205;139200;-64
2023/03/06 01:07:38;;;;;;;48.70;17.20;;;;;;;-3.31;78.30;99721.84;111129;1206;100429;-64
2023/03/06 01:10:06;;;;;;;51.00;16.20;;;;;;;-3.30;78.10;99719.21;111257;1206;99889;-64
2023/03/06 01:12:32;;;;;;;55.80;17.60;;;;;;;-3.30;77.83;99716.77;111064;1207;140094;-65
2023/03/06 01:14:57;;;;;;;53.00;18.90;;;;;;;-3.30;78.18;99712.92;111086;1208;99071;-65
2023/03/06 01:17:22;;;;;;;52.70;16.60;;;;;;;-3.30;78.23;99712.75;111078;1222;140945;-65
2023/03/06 01:19:48;;;;;;;54.50;15.50;;;;;;;-3.29;78.07;99711.18;111036;1206;99043;-65
2023/03/06 01:22:13;;;;;;;49.10;19.70;;;;;;;-3.28;78.02;99708.73;111104;1209;98942;-65
2023/03/06 01:24:38;;;;;;;52.90;17.40;;;;;;;-3.26;78.29;99706.98;110759;1221;138638;-66
2023/03/06 01:27:03;;;;;;;52.50;16.90;;;;;;;-3.23;78.13;99704.88;110994;1206;99055;-65
2023/03/06 01:29:29;;;;;;;53.20;17.20;;;;;;;-3.22;78.07;99699.27;111022;1208;140553;-65
2023/03/06 01:31:54;;;;;;;48.30;17.10;;;;;;;-3.19;78.34;99700.31;111184;1209;98989;-65
2023/03/06 01:34:19;;;;;;;40.90;15.80;;;;;;;-3.17;78.35;99699.09;111134;1208;139382;-64
2023/03/06 01:36:45;;;;;;;53.50;17.70;;;;;;;-3.14;78.19;99697.86;111231;1205;99327;-66
2023/03/06 01:39:10;;;;;;;75.60;20.50;;;;;;;-3.10;78.42;99696.45;111230;1206;99027;-65
2023/03/06 01:41:35;;;;;;;51.90;17.40;;;;;;;-3.07;78.15;99694.86;111035;1208;140619;-65
2023/03/06 01:44:00;;;;;;;54.90;18.80;;;;;;;-3.05;78.37;99691.54;111212;1209;99110;-65
2023/03/06 01:46:52;;;;;;;46.00;18.30;;;;;;;-3.03;78.59;99690.48;111162;1206;139809;-64
2023/03/06 01:49:35;;;;;;;57.70;18.60;;;;;;;-3.03;78.50;99684.54;111148;1208;99179;-65
2023/03/06 01:52:05;;;;;;;49.70;17.60;;;;;;;-3.03;78.42;99682.27;111095;1208;109941;-65
2023/03/06 01:54:39;;;;;;;60.00;19.00;;;;;;;-3.03;78.84;99681.91;111104;1208;140351;-65
2023/03/06 01:57:11;;;;;;;73.80;18.90;;;;;;;-3.04;78.77;99679.82;111194;1221;98963;-65
2023/03/06 01:59:38;;;;;;;60.40;20.90;;;;;;;-3.04;78.81;99680.52;111050;1208;139633;-65
2023/03/06 02:02:05;;;;;;;62.30;19.80;;;;;;;-3.04;78.76;99670.21;111094;1209;98990;-65
2023/03/06 02:04:32;;;;;;;58.00;20.10;;;;;;;-3.05;78.75;99667.07;111008;1209;140193;-64
2023/03/06 02:07:03;;;;;;;53.80;19.30;;;;;;;-3.05;79.19;99664.10;111268;1208;99387;-65
2023/03/06 02:09:30;;;;;;;59.20;19.60;;;;;;;-3.04;78.95;99662.17;111199;1208;99368;-65
2023/03/06 02:11:56;;;;;;;51.60;19.70;;;;;;;-3.04;78.97;99657.98;111054;1205;139437;-65
2023/03/06 02:14:22;;;;;;;56.20;18.10;;;;;;;-3.03;78.97;99660.23;111150;1207;99019;-65
2023/03/06 02:16:48;;;;;;;70.50;21.70;;;;;;;-3.01;78.93;99659.89;111015;1209;139231;-66
2023/03/06 02:19:31;;;;;;;54.10;19.30;;;;;;;-3.01;79.17;99656.21;111073;1221;98787;-65
2023/03/06 02:21:56;;;;;;;54.60;19.90;;;;;;;-3.00;78.87;99651.14;110995;1207;112019;-65
2023/03/06 02:24:55;;;;;;;61.10;19.80;;;;;;;-3.00;79.31;99645.73;110977;1206;141217;-65
2023/03/06 02:27:23;;;;;;;62.00;20.00;;;;;;;-3.01;79.00;99642.23;111040;1208;108163;-65
2023/03/06 02:29:49;;;;;;;75.60;24.80;;;;;;;-3.01;79.02;99640.66;110994;1222;141249;-64
2023/03/06 02:32:14;;;;;;;54.10;18.80;;;;;;;-3.00;79.32;99636.46;111197;1206;98910;-65
2023/03/06 02:34:39;;;;;;;61.40;21.40;;;;;;;-3.00;79.18;99642.77;111131;1208;140133;-64
2023/03/06 02:37:09;;;;;;;63.60;21.50;;;;;;;-2.99;79.24;99639.78;111187;1206;99102;-65
2023/03/06 02:39:39;;;;;;;68.60;21.40;;;;;;;-2.99;79.36;99631.75;111244;1206;99022;-66
2023/03/06 02:42:05;;;;;;;59.20;20.60;;;;;;;-3.00;79.14;99629.30;110980;1207;140658;-65
2023/03/06 02:44:32;;;;;;;66.90;21.20;;;;;;;-2.99;79.38;99631.39;110945;1205;99334;-66
2023/03/06 02:46:57;;;;;;;60.10;20.10;;;;;;;-3.00;79.26;99627.55;111029;1209;140732;-65
2023/03/06 02:49:23;;;;;;;63.20;20.10;;;;;;;-2.99;79.28;99628.23;111213;1206;99402;-66
2023/03/06 02:51:48;;;;;;;67.60;20.80;;;;;;;-2.99;79.46;99625.79;111222;1206;98929;-65
2023/03/06 02:54:13;;;;;;;67.30;22.20;;;;;;;-2.97;79.80;99629.64;111109;1206;140991;-65
2023/03/06 02:56:39;;;;;;;67.30;22.40;;;;;;;-2.96;79.74;99629.09;111087;1208;98996;-65
2023/03/06 02:59:04;;;;;;;58.20;19.90;;;;;;;-2.92;79.34;99626.98;111123;1209;139534;-65
2023/03/06 03:01:30;;;;;;;58.80;20.10;;;;;;;-2.92;79.57;99622.79;111179;1208;113279;-65
2023/03/06 03:03:55;;;;;;;58.00;21.00;;;;;;;-2.91;79.79;99622.96;111173;1205;99459;-65
2023/03/06 03:06:20;;;;;;;60.50;18.80;;;;;;;-2.90;79.66;99622.25;111117;1208;139119;-65
2023/03/06 03:08:45;;;;;;;65.40;20.60;;;;;;;-2.89;79.41;99621.73;111126;1208;99545;-66
2023/03/06 03:11:11;;;;;;;54.50;19.50;;;;;;;-2.87;79.61;99617.86;111206;1206;139025;-64
2023/03/06 03:13:36;;;;;;;53.20;18.80;;;;;;;-2.86;79.65;99610.34;111058;1209;98965;-65
2023/03/06 03:16:05;;;;;;;59.50;18.80;;;;;;;-2.86;79.45;99607.37;111187;1208;99044;-65
2023/03/06 03:18:30;;;;;;;46.00;16.20;;;;;;;-2.84;80.12;99606.67;110920;1206;139795;-65
2023/03/06 03:20:55;;;;;;;44.40;16.30;;;;;;;-2.82;79.97;99610.15;111011;1210;99069;-65
2023/03/06 03:23:21;;;;;;;42.00;16.20;;;;;;;-2.80;79.85;99607.16;110992;1206;139639;-65
2023/03/06 03:25:47;;;;;;;46.80;17.50;;;;;;;-2.78;79.58;99604.35;111134;1209;98949;-65
2023/03/06 03:28:12;;;;;;;43.60;16.00;;;;;;;-2.76;80.05;99605.04;111105;1206;100655;-66
2023/03/06 03:30:39;;;;;;;50.00;16.40;;;;;;;-2.73;80.09;99606.59;110908;1206;140894;-66
2023/03/06 03:33:05;;;;;;;48.60;17.70;;;;;;;-2.72;80.27;99603.61;111129;1208;99015;-66
2023/03/06 03:35:30;;;;;;;49.50;17.50;;;;;;;-2.70;80.40;99593.63;110985;1206;139359;-65
2023/03/06 03:37:56;;;;;;;46.70;16.30;;;;;;;-2.69;79.96;99594.50;111105;1208;100349;-65
2023/03/06 03:40:21;;;;;;;50.60;15.80;;;;;;;-2.67;80.17;99594.31;110956;1210;141244;-64
2023/03/06 03:42:46;;;;;;;48.90;17.60;;;;;;;-2.64;80.19;99592.89;111176;1206;99095;-66
2023/03/06 03:45:12;;;;;;;35.70;14.00;;;;;;;-2.63;80.07;99589.55;111155;1208;99556;-63
2023/03/06 03:47:37;;;;;;;49.80;18.00;;;;;;;-2.62;80.24;99591.66;111069;1208;138896;-64
2023/03/06 03:50:03;;;;;;;53.70;16.30;;;;;;;-2.60;80.23;99589.88;111097;1208;109103;-65
2023/03/06 03:52:29;;;;;;;54.40;17.30;;;;;;;-2.57;80.20;99587.73;111142;1208;140809;-64
2023/03/06 03:54:54;;;;;;;46.60;16.40;;;;;;;-2.55;80.41;99583.70;111228;1205;97868;-65
2023/03/06 03:57:19;;;;;;;52.10;16.20;;;;;;;-2.53;80.41;99584.38;111231;1209;99284;-65
2023/03/06 03:59:44;;;;;;;49.10;17.10;;;;;;;-2.50;80.50;99585.42;111082;1208;138791;-65
2023/03/06 04:02:10;;;;;;;48.40;17.80;;;;;;;-2.47;80.46;99582.23;111143;1208;99008;-65
2023/03/06 04:04:35;;;;;;;47.70;16.10;;;;;;;-2.43;80.44;99580.81;111013;1208;141159;-64
2023/03/06 04:07:01;;;;;;;42.90;16.40;;;;;;;-2.40;80.86;99579.56;111250;1205;99049;-65
2023/03/06 04:09:26;;;;;;;47.90;17.00;;;;;;;-2.37;80.64;99574.28;111136;1208;99034;-65
2023/03/06 04:11:52;;;;;;;41.50;14.60;;;;;;;-2.35;80.85;99573.05;111096;1208;139746;-65
2023/03/06 04:14:17;;;;;;;40.30;14.30;;;;;;;-2.31;80.80;99568.81;111140;1208;99441;-65
2023/03/06 04:16:43;;;;;;;42.00;15.80;;;;;;;-2.27;80.80;99566.16;110935;1208;139342;-65
2023/03/06 04:19:08;;;;;;;33.40;15.60;;;;;;;-2.23;81.05;99565.06;111025;1210;98953;-65
2023/03/06 04:21:34;;;;;;;44.70;16.40;;;;;;;-2.19;81.08;99560.14;110989;1206;97921;-65
2023/03/06 04:23:59;;;;;;;33.70;14.50;;;;;;;-2.16;81.22;99556.77;110940;1209;139475;-65
2023/03/06 04:26:24;;;;;;;36.80;13.80;;;;;;;-2.13;81.20;99551.67;111019;1210;99085;-64
2023/03/06 04:28:50;;;;;;;36.30;14.80;;;;;;;-2.10;80.81;99552.86;110877;1207;139583;-64
2023/03/06 04:31:15;;;;;;;37.20;14.90;;;;;;;-2.07;81.10;99549.51;110976;1210;100433;-65
2023/03/06 04:33:40;;;;;;;40.00;13.60;;;;;;;-2.03;81.37;99549.48;110893;1207;99055;-65
2023/03/06 04:36:06;;;;;;;37.10;14.30;;;;;;;-2.01;81.30;99548.05;111074;1205;139988;-64
2023/03/06 04:38:31;;;;;;;47.40;15.80;;;;;;;-1.98;81.22;99543.81;111204;1208;99025;-65
2023/03/06 04:40:56;;;;;;;40.70;15.40;;;;;;;-1.94;81.22;99536.60;111039;1206;139450;-64
2023/03/06 04:43:22;;;;;;;37.50;14.30;;;;;;;-1.89;81.67;99536.91;111165;1209;98992;-64
2023/03/06 04:45:47;;;;;;;36.50;13.60;;;;;;;-1.86;81.71;99540.36;111162;1206;99015;-64
2023/03/06 04:48:17;;;;;;;29.80;12.20;;;;;;;-1.84;81.49;99537.18;111150;1206;140266;-65
2023/03/06 04:50:42;;;;;;;33.30;14.50;;;;;;;-1.81;81.66;99535.05;111140;1206;108150;-65
2023/03/06 04:53:08;;;;;;;32.70;11.60;;;;;;;-1.78;81.80;99535.55;111036;1208;139374;-64
2023/03/06 04:55:34;;;;;;;37.80;12.90;;;;;;;-1.77;81.94;99532.73;111219;1208;99378;-64
2023/03/06 04:57:59;;;;;;;25.90;12.50;;;;;;;-1.75;81.98;99530.96;111126;1208;99082;-65
2023/03/06 05:00:30;;;;;;;27.70;11.90;;;;;;;-1.74;81.69;99519.03;111090;1209;141044;-65
2023/03/06 05:03:00;;;;;;;37.40;14.10;;;;;;;-1.72;81.85;99518.67;111142;1209;99116;-64
2023/03/06 05:05:26;;;;;;;25.00;10.80;;;;;;;-1.71;81.95;99516.73;111076;1208;140546;-64
2023/03/06 05:07:52;;;;;;;24.10;11.50;;;;;;;-1.70;82.02;99514.27;111063;1206;99050;-64
2023/03/06 05:10:18;;;;;;;28.00;10.10;;;;;;;-1.70;81.98;99511.82;111325;1206;98987;-65
2023/03/06 05:12:43;;;;;;;19.60;8.30;;;;;;;-1.69;81.98;99509.52;110924;1206;141613;-64
2023/03/06 05:15:10;;;;;;;17.40;7.40;;;;;;;-1.68;82.17;99509.86;111066;1208;99022;-65
2023/03/06 05:17:36;;;;;;;19.30;7.00;;;;;;;-1.68;82.09;99505.48;111183;1205;140689;-64
2023/03/06 05:20:05;;;;;;;10.30;4.80;;;;;;;-1.67;82.08;99504.08;111171;1208;108877;-64
2023/03/06 05:22:31;;;;;;;13.60;5.20;;;;;;;-1.68;82.08;99497.26;111155;1208;140998;-64
2023/03/06 05:24:56;;;;;;;13.10;4.80;;;;;;;-1.68;82.49;99497.25;111346;1205;98623;-64
2023/03/06 05:27:21;;;;;;;16.90;5.60;;;;;;;-1.66;82.15;99497.75;111261;1208;99022;-65
2023/03/06 05:29:47;;;;;;;17.80;5.80;;;;;;;-1.64;82.53;99495.45;111004;1206;140339;-65
2023/03/06 05:32:12;;;;;;;20.00;5.50;;;;;;;-1.62;82.23;99491.40;111049;1208;99008;-65
2023/03/06 05:34:38;;;;;;;14.70;5.50;;;;;;;-1.61;82.29;99493.14;110987;1209;138812;-64
2023/03/06 05:37:03;;;;;;;14.40;5.70;;;;;;;-1.56;82.57;99488.35;111029;1206;98810;-65
2023/03/06 05:39:29;;;;;;;13.20;4.60;;;;;;;-1.56;82.27;99487.48;111127;1206;98974;-65
2023/03/06 05:41:54;;;;;;;12.60;3.30;;;;;;;-1.55;82.33;99487.98;111041;1208;139121;-64
2023/03/06 05:44:19;;;;;;;9.10;3.60;;;;;;;-1.54;82.42;99486.04;111199;1216;98949;-65
2023/03/06 05:46:48;;;;;;;13.20;5.60;;;;;;;-1.53;82.28;99484.80;111102;1208;139805;-64
2023/03/06 05:49:13;;;;;;;12.60;5.10;;;;;;;-1.51;82.44;99487.05;111180;1208;99008;-65
2023/03/06 05:51:38;;;;;;;23.30;9.70;;;;;;;-1.50;82.53;99481.96;111184;1208;98970;-65
2023/03/06 05:54:03;;;;;;;19.50;7.20;;;;;;;-1.48;82.26;99482.64;111175;1208;138861;-66
2023/03/06 05:56:29;;;;;;;19.60;7.30;;;;;;;-1.46;82.71;99478.75;111203;1205;99547;-66
2023/03/06 05:58:54;;;;;;;21.00;9.80;;;;;;;-1.43;82.76;99476.26;111103;1208;138706;-65
2023/03/06 06:01:20;;;;;;;32.60;13.30;;;;;;;-1.41;82.77;99475.16;111173;1208;98928;-65
2023/03/06 06:03:47;;;;;;;24.10;11.70;;;;;;;-1.38;82.66;99473.02;111207;1208;100304;-65
2023/03/06 06:06:13;;;;;;;35.40;13.20;;;;;;;-1.35;82.69;99472.98;111028;1206;139566;-66
2023/03/06 06:08:40;;;;;;;34.70;13.90;;;;;;;-1.31;82.83;99470.30;111277;1208;99143;-65
2023/03/06 06:11:07;;;;;;;31.20;13.00;;;;;;;-1.26;82.97;99470.58;111210;1208;139380;-65
2023/03/06 06:13:32;;;;;;;30.30;12.10;;;;;;;-1.21;83.04;99468.59;111149;1209;99018;-66
2023/03/06 06:15:57;;;;;;;32.10;12.90;;;;;;;-1.19;82.98;99463.82;111127;1210;98939;-65
2023/03/06 06:18:23;;;;;;;26.50;10.70;;;;;;;-1.15;83.08;99466.40;111091;1210;139264;-65
2023/03/06 06:20:48;;;;;;;25.60;11.10;;;;;;;-1.13;83.32;99460.40;111168;1209;99046;-65
2023/03/06 06:23:14;;;;;;;32.80;12.30;;;;;;;-1.12;82.86;99463.89;111149;1206;138689;-65
2023/03/06 06:25:39;;;;;;;21.60;9.90;;;;;;;-1.14;82.77;99463.21;111151;1208;99097;-66
2023/03/06 06:28:05;;;;;;;28.60;10.20;;;;;;;-1.12;82.93;99462.49;111248;1206;99017;-65
2023/03/06 06:30:31;;;;;;;18.90;9.70;;;;;;;-1.09;83.18;99463.66;111151;1208;140125;-66
2023/03/06 06:32:58;;;;;;;25.30;8.80;;;;;;;-1.04;83.18;99462.17;111180;1221;99271;-66
2023/03/06 06:35:23;;;;;;;19.10;6.90;;;;;;;-0.99;83.03;99464.21;111088;1209;139096;-65
2023/03/06 06:37:48;;;;;;;20.00;8.60;;;;;;;-0.96;83.26;99460.67;111150;1205;99066;-66
2023/03/06 06:40:14;;;;;;;24.70;7.90;;;;;;;-0.92;83.27;99462.88;111128;1208;100939;-64
2023/03/06 06:42:40;;;;;;;18.00;7.70;;;;;;;-0.89;83.20;99462.48;110951;1206;140347;-64
2023/03/06 06:45:06;;;;;;;26.00;8.20;;;;;;;-0.87;83.41;99462.98;111194;1208;99030;-64
2023/03/06 06:47:32;;;;;;;26.00;7.90;;;;;;;-0.85;83.22;99456.11;111012;1206;139238;-64
2023/03/06 06:49:58;;;;;;;21.00;8.30;;;;;;;-0.85;83.31;99458.20;111121;1206;99306;-65
2023/03/06 06:52:24;;;;;;;24.60;7.80;;;;;;;-0.84;83.18;99457.84;110998;1206;138725;-64
2023/03/06 06:54:50;;;;;;;17.00;7.70;;;;;;;-0.86;83.30;99456.47;111118;1206;99028;-65
2023/03/06 06:57:16;;;;;;;25.30;8.80;;;;;;;-0.85;83.50;99451.54;113358;1205;97736;-65
2023/03/06 06:59:41;;;;;;;21.10;7.60;;;;;;;-0.80;83.52;99453.20;113192;1204;139276;-65
2023/03/06 07:02:12;;;;;;;16.60;6.70;;;;;;;-0.75;83.54;99446.98;113417;1204;96888;-65
2023/03/06 07:04:38;;;;;;;13.30;6.30;;;;;;;-0.70;83.67;99446.38;112448;1206;138615;-64
2023/03/06 07:07:03;;;;;;;19.00;7.30;;;;;;;-0.64;83.64;99447.33;111127;1208;99041;-65
2023/03/06 07:09:29;;;;;;;17.10;7.90;;;;;;;-0.44;84.19;99442.59;111163;1206;98990;-65
2023/03/06 07:11:55;;;;;;;18.60;7.40;;;;;;;-0.38;83.73;99442.83;110942;1205;140106;-65
2023/03/06 07:14:20;;;;;;;18.20;8.70;;;;;;;-0.40;83.65;99439.88;111009;1210;99036;-65
2023/03/06 07:16:46;;;;;;;24.00;8.70;;;;;;;-0.39;83.81;99440.91;110864;1206;139438;-66
2023/03/06 07:19:11;;;;;;;23.70;9.20;;;;;;;-0.38;83.78;99441.07;111184;1206;98881;-66
2023/03/06 07:21:36;;;;;;;25.80;10.70;;;;;;;-0.39;83.70;99438.98;111178;1209;99014;-65
2023/03/06 07:24:02;;;;;;;27.00;11.50;;;;;;;-0.36;83.96;99439.11;110958;1208;140416;-65
2023/03/06 07:26:27;;;;;;;29.60;10.90;;;;;;;-0.34;83.82;99440.29;110981;1210;99031;-66
2023/03/06 07:28:53;;;;;;;24.30;10.30;;;;;;;-0.32;83.96;99441.50;110661;1210;140349;-67
2023/03/06 07:31:21;;;;;;;22.10;9.60;;;;;;;-0.29;84.02;99443.55;110984;1211;99030;-64
2023/03/06 07:33:47;;;;;;;16.60;9.30;;;;;;;-0.25;84.20;99444.53;111186;1205;99022;-64
2023/03/06 07:36:13;;;;;;;23.00;8.80;;;;;;;-0.20;84.11;99445.13;110822;1206;139924;-64
2023/03/06 07:38:38;;;;;;;26.00;10.80;;;;;;;-0.17;84.18;99448.39;110918;1221;99031;-64
2023/03/06 07:41:04;;;;;;;23.90;9.00;;;;;;;-0.16;84.12;99449.61;110843;1208;141017;-64
2023/03/06 07:43:30;;;;;;;14.60;6.60;;;;;;;-0.17;84.01;99451.91;111042;1215;99422;-64
2023/03/06 07:45:59;;;;;;;15.90;6.60;;;;;;;-0.20;84.07;99448.64;111193;1208;99085;-64
2023/03/06 07:48:25;;;;;;;11.20;4.50;;;;;;;-0.19;84.01;99450.55;111172;1206;140737;-64
2023/03/06 07:50:57;;;;;;;10.30;4.10;;;;;;;-0.23;83.98;99454.48;111245;1209;99019;-64
2023/03/06 07:53:23;;;;;;;8.90;3.00;;;;;;;-0.24;84.10;99445.73;110919;1208;139330;-64
2023/03/06 07:55:49;;;;;;;8.80;3.40;;;;;;;-0.16;84.20;99445.23;111139;1208;99015;-63
2023/03/06 07:58:14;;;;;;;10.30;3.30;;;;;;;-0.09;84.27;99449.48;111235;1206;99111;-64
2023/03/06 08:00:39;;;;;;;9.70;3.50;;;;;;;-0.04;84.29;99447.43;110830;1209;139117;-63
2023/03/06 08:03:05;;;;;;;9.60;3.20;;;;;;;0.02;84.23;99451.16;110928;1208;99095;-63
2023/03/06 08:05:30;;;;;;;17.20;4.40;;;;;;;-0.01;84.02;99451.23;110989;1206;139958;-63
2023/03/06 08:07:56;;;;;;;12.40;4.00;;;;;;;0.00;84.25;99452.63;111068;1209;99002;-63
2023/03/06 08:10:21;;;;;;;11.80;4.10;;;;;;;0.06;84.34;99447.92;111084;1208;141625;-62
2023/03/06 08:12:47;;;;;;;15.50;5.80;;;;;;;0.11;84.35;99447.29;110817;1214;99321;-63
2023/03/06 08:15:12;;;;;;;12.20;5.40;;;;;;;0.14;84.25;99448.28;110928;1207;99050;-64
2023/03/06 08:17:38;;;;;;;13.90;7.00;;;;;;;0.17;84.34;99443.83;110442;1210;140750;-64
2023/03/06 08:20:04;;;;;;;14.50;7.60;;;;;;;0.25;84.48;99445.42;111010;1208;98990;-64
2023/03/06 08:22:29;;;;;;;19.80;8.20;;;;;;;0.29;84.43;99447.09;110800;1205;139622;-64
2023/03/06 08:24:55;;;;;;;23.10;10.50;;;;;;;0.23;84.04;99442.99;110988;1209;99159;-64
2023/03/06 08:27:20;;;;;;;19.60;11.10;;;;;;;0.06;83.96;99444.39;111034;1205;99005;-63
2023/03/06 08:29:45;;;;;;;18.10;9.40;;;;;;;-0.02;84.04;99444.06;110920;1219;140776;-64
2023/03/06 08:32:11;;;;;;;19.00;9.10;;;;;;;0.01;84.25;99442.94;111021;1213;99168;-63
2023/03/06 08:34:39;;;;;;;26.10;10.50;;;;;;;0.04;84.28;99439.52;110833;1209;138688;-64
2023/03/06 08:37:05;;;;;;;27.10;10.70;;;;;;;0.06;84.22;99441.07;111269;1208;99021;-64
2023/03/06 08:39:30;;;;;;;26.70;9.90;;;;;;;0.04;84.17;99439.71;111182;1206;99023;-64
2023/03/06 08:41:56;;;;;;;27.80;11.30;;;;;;;0.06;84.37;99440.90;110891;1209;139033;-64
2023/03/06 08:44:21;;;;;;;22.60;11.40;;;;;;;0.15;84.55;99445.09;111048;1209;99111;-64
2023/03/06 08:46:46;;;;;;;26.30;12.30;;;;;;;0.21;84.51;99443.04;110991;1206;138873;-65
2023/03/06 08:49:12;;;;;;;26.30;12.40;;;;;;;0.27;84.49;99439.91;111088;1221;99027;-64
2023/03/06 08:51:38;;;;;;;26.20;13.00;;;;;;;0.34;84.49;99441.19;111013;1206;98951;-64
2023/03/06 08:54:03;;;;;;;27.10;13.40;;;;;;;0.39;84.54;99440.20;110927;1208;138548;-64
2023/03/06 08:56:32;;;;;;;28.10;13.20;;;;;;;0.43;84.44;99443.11;111051;1205;99054;-64
2023/03/06 08:58:59;;;;;;;39.00;14.20;;;;;;;0.49;84.52;99444.20;110916;1206;139411;-63
2023/03/06 09:01:31;;;;;;;27.70;14.10;;;;;;;0.55;84.67;99447.41;111006;1208;98990;-64
2023/03/06 09:04:02;;;;;;;31.10;15.00;;;;;;;0.61;84.61;99447.63;111129;1209;99041;-64
2023/03/06 09:06:32;;;;;;;32.60;16.10;;;;;;;0.66;84.62;99452.61;110964;1207;138967;-64
2023/03/06 09:08:58;;;;;;;40.40;18.20;;;;;;;0.71;84.65;99450.57;111037;1208;112937;-65
2023/03/06 09:11:25;;;;;;;32.30;16.30;;;;;;;0.74;84.49;99449.79;110971;1209;139183;-64
2023/03/06 09:13:51;;;;;;;39.60;16.70;;;;;;;0.77;84.54;99452.02;111047;1209;98938;-65
2023/03/06 09:16:16;;;;;;;35.20;15.00;;;;;;;0.77;84.45;99456.94;111197;1206;98941;-65
2023/03/06 09:18:42;;;;;;;25.40;13.40;;;;;;;0.73;84.33;99463.70;110980;1209;139076;-64
2023/03/06 09:21:08;;;;;;;50.40;25.60;;;;;;;0.64;84.15;99468.30;111066;1209;98995;-64
2023/03/06 09:23:35;;;;;;;68.50;28.60;;;;;;;0.61;84.24;99462.04;110919;1218;140319;-64
2023/03/06 09:26:01;;;;;;;226.90;97.70;;;;;;;0.69;84.55;99463.96;111144;1209;99239;-64
2023/03/06 09:28:27;;;;;;;33.10;16.40;;;;;;;0.80;84.61;99447.38;110952;1208;139313;-64
2023/03/06 09:30:53;;;;;;;34.20;16.90;;;;;;;0.75;84.36;99448.02;111034;1208;99018;-65
2023/03/06 09:33:19;;;;;;;28.40;12.80;;;;;;;0.68;84.38;99466.10;111045;1206;99707;-64
2023/03/06 09:35:51;;;;;;;28.40;14.60;;;;;;;0.54;84.11;99477.47;110902;1212;138672;-65
2023/03/06 09:38:17;;;;;;;27.20;13.60;;;;;;;0.40;84.30;99473.58;111045;1207;113032;-65
2023/03/06 09:41:01;;;;;;;29.10;12.60;;;;;;;0.40;84.40;99474.63;110921;1209;140205;-65
2023/03/06 09:43:38;;;;;;;28.30;12.20;;;;;;;0.38;84.40;99475.38;111157;1206;107838;-64
2023/03/06 09:46:31;;;;;;;21.30;11.00;;;;;;;0.38;84.51;99465.88;110987;1209;99264;-65
2023/03/06 09:49:33;;;;;;;40.30;15.50;;;;;;;0.50;84.68;99465.27;111033;1209;99195;-65
2023/03/06 09:52:44;;;;;;;21.90;10.80;;;;;;;0.65;84.70;99462.83;110986;1209;113064;-65
2023/03/06 09:55:20;;;;;;;25.50;12.00;;;;;;;0.72;84.53;99465.13;110868;1212;100040;-65
2023/03/06 09:58:05;;;;;;;25.00;10.90;;;;;;;0.86;84.67;99460.42;110844;1211;107646;-65
2023/03/06 10:01:02;;;;;;;24.50;12.40;;;;;;;1.02;84.74;99460.93;110814;1210;138828;-66
2023/03/06 10:03:27;;;;;;;30.80;12.50;;;;;;;1.19;84.68;99455.75;110905;1207;99350;-64
2023/03/06 10:05:58;;;;;;;29.90;14.40;;;;;;;1.31;84.56;99452.30;110869;1206;138453;-65
2023/03/06 10:08:34;;;;;;;32.20;15.00;;;;;;;1.42;84.53;99450.95;110920;1206;100044;-64
2023/03/06 10:11:04;;;;;;;29.20;13.40;;;;;;;1.62;84.82;99453.98;110938;1209;139570;-65
2023/03/06 10:13:38;;;;;;;36.20;14.50;;;;;;;1.80;84.89;99451.01;111037;1209;100458;-64
2023/03/06 10:16:33;;;;;;;32.20;14.60;;;;;;;1.91;84.76;99448.60;111041;1207;99181;-64
2023/03/06 10:19:09;;;;;;;30.80;13.70;;;;;;;2.02;84.80;99450.44;110986;1208;115260;-65
2023/03/06 10:21:52;;;;;;;24.50;12.10;;;;;;;2.13;84.77;99444.65;111053;1222;100029;-65
2023/03/06 10:24:39;;;;;;;24.70;12.80;;;;;;;2.26;84.66;99446.55;110870;1210;138720;-65
2023/03/06 10:27:34;;;;;;;28.80;11.80;;;;;;;2.34;84.51;99446.17;110765;1222;100189;-65
2023/03/06 10:30:12;;;;;;;27.50;12.80;;;;;;;2.44;84.63;99443.91;110899;1210;138895;-65
2023/03/06 10:33:06;;;;;;;25.80;11.90;;;;;;;2.50;84.51;99447.98;110989;1209;113457;-65
2023/03/06 10:35:45;;;;;;;24.90;12.90;;;;;;;2.33;84.16;99448.65;110944;1209;140949;-65
2023/03/06 10:38:17;;;;;;;28.60;13.00;;;;;;;2.19;84.14;99440.58;111111;1208;107915;-65
2023/03/06 10:40:59;;;;;;;33.30;15.30;;;;;;;2.20;84.51;99437.05;110977;1208;138876;-64
2023/03/06 10:43:24;;;;;;;32.40;14.50;;;;;;;2.06;84.11;99452.25;111000;1209;99119;-64
2023/03/06 10:45:52;;;;;;;24.50;12.70;;;;;;;1.98;84.20;99445.26;111003;1218;99558;-65
2023/03/06 10:48:25;;;;;;;27.30;14.00;;;;;;;2.01;84.43;99448.34;111096;1207;139811;-65
2023/03/06 10:50:53;;;;;;;26.30;12.40;;;;;;;2.05;84.22;99445.59;110946;1209;109096;-65
2023/03/06 10:53:29;;;;;;;23.10;11.70;;;;;;;1.94;83.87;99450.29;111045;1222;139898;-63
2023/03/06 10:55:58;;;;;;;23.90;12.70;;;;;;;1.83;83.79;99443.88;111034;1219;99032;-64
2023/03/06 10:58:27;;;;;;;24.20;12.80;;;;;;;1.72;83.72;99447.90;111062;1208;113100;-63
2023/03/06 11:01:05;;;;;;;29.80;13.70;;;;;;;1.67;83.76;99447.49;111121;1205;139128;-64
2023/03/06 11:03:31;;;;;;;26.40;14.40;;;;;;;1.65;83.91;99442.80;110994;1208;108995;-64
2023/03/06 11:06:01;;;;;;;27.60;15.00;;;;;;;1.66;83.78;99443.48;110988;1205;138854;-65
2023/03/06 11:08:28;;;;;;;25.00;13.10;;;;;;;1.67;83.58;99447.15;110971;1212;99185;-65
2023/03/06 11:11:05;;;;;;;25.80;13.20;;;;;;;1.62;83.44;99443.05;110734;1210;140972;-65
2023/03/06 11:13:35;;;;;;;24.60;13.30;;;;;;;1.58;83.50;99444.20;111023;1208;101185;-64